createdAt,value
2022-11-22T00:00:33.166Z,1.11
2022-11-22T00:03:00.604Z,1.07
2022-11-22T00:05:28.031Z,1.23
2022-11-22T00:07:55.502Z,1.02
2022-11-22T00:10:22.972Z,0.95
2022-11-22T00:12:51.793Z,1.00
2022-11-22T00:15:19.337Z,0.97
2022-11-22T00:17:46.778Z,1.07
2022-11-22T00:20:14.955Z,1.03
2022-11-22T00:22:44.795Z,0.95
2022-11-22T00:25:12.775Z,0.98
2022-11-22T00:27:40.493Z,1.08
2022-11-22T00:30:10.186Z,1.04
2022-11-22T00:32:37.853Z,1.13
2022-11-22T00:35:06.247Z,1.15
2022-11-22T00:37:33.838Z,0.97
2022-11-22T00:40:02.161Z,1.17
2022-11-22T00:42:29.672Z,1.23
2022-11-22T00:44:57.166Z,1.14
2022-11-22T00:47:25.954Z,1.23
2022-11-22T00:49:53.392Z,1.23
2022-11-22T00:52:20.858Z,1.13
2022-11-22T00:54:53.200Z,1.08
2022-11-22T00:57:22.501Z,1.27
2022-11-22T00:59:50.004Z,1.18
2022-11-22T01:02:17.494Z,1.17
2022-11-22T01:04:47.080Z,1.25
2022-11-22T01:07:14.678Z,1.13
2022-11-22T01:09:42.209Z,1.30
2022-11-22T01:12:09.698Z,1.30
2022-11-22T01:14:37.163Z,1.12
2022-11-22T01:17:04.658Z,1.01
2022-11-22T01:19:32.535Z,1.21
2022-11-22T01:22:03.038Z,1.09
2022-11-22T01:24:30.474Z,1.12
2022-11-22T01:26:57.955Z,1.10
2022-11-22T01:29:25.564Z,1.18
2022-11-22T01:31:53.017Z,1.12
2022-11-22T01:34:20.561Z,1.21
2022-11-22T01:36:48.015Z,0.96
2022-11-22T01:39:16.914Z,1.08
2022-11-22T01:41:44.501Z,1.13
2022-11-22T01:44:22.716Z,0.94
2022-11-22T01:46:52.312Z,1.07
2022-11-22T01:49:26.237Z,1.02
2022-11-22T01:51:55.831Z,1.08
2022-11-22T01:54:26.767Z,1.04
2022-11-22T01:56:57.104Z,1.13
2022-11-22T01:59:28.239Z,1.19
2022-11-22T02:01:56.146Z,1.22
2022-11-22T02:04:25.078Z,1.17
2022-11-22T02:06:55.454Z,1.16
2022-11-22T02:09:24.334Z,1.22
2022-11-22T02:11:53.651Z,1.23
2022-11-22T02:14:25.199Z,1.14
2022-11-22T02:16:52.667Z,1.20
2022-11-22T02:19:25.654Z,1.16
2022-11-22T02:21:56.610Z,1.09
2022-11-22T02:24:28.097Z,1.14
2022-11-22T02:26:56.878Z,1.30
2022-11-22T02:29:24.620Z,1.40
2022-11-22T02:31:52.090Z,1.51
2022-11-22T02:34:19.599Z,1.44
2022-11-22T02:36:49.794Z,1.48
2022-11-22T02:39:19.282Z,1.29
2022-11-22T02:41:47.348Z,1.35
2022-11-22T02:44:16.685Z,1.35
2022-11-22T02:46:48.819Z,1.23
2022-11-22T02:49:19.088Z,1.36
2022-11-22T02:51:46.947Z,1.30
2022-11-22T02:54:14.589Z,1.46
2022-11-22T02:56:42.049Z,1.48
2022-11-22T02:59:09.657Z,1.44
2022-11-22T03:01:38.753Z,1.37
2022-11-22T03:04:06.575Z,1.43
2022-11-22T03:06:34.162Z,1.48
2022-11-22T03:09:01.654Z,1.36
2022-11-22T03:11:29.112Z,1.34
2022-11-22T03:13:56.565Z,1.47
2022-11-22T03:16:24.009Z,1.46
2022-11-22T03:18:52.786Z,1.39
2022-11-22T03:21:20.709Z,1.42
2022-11-22T03:23:48.170Z,1.38
2022-11-22T03:26:15.603Z,1.48
2022-11-22T03:28:43.037Z,1.42
2022-11-22T03:31:10.535Z,1.38
2022-11-22T03:33:37.974Z,1.37
2022-11-22T03:36:06.881Z,1.30
2022-11-22T03:38:35.752Z,1.40
2022-11-22T03:41:03.219Z,1.41
2022-11-22T03:43:30.763Z,1.30
2022-11-22T03:45:58.318Z,1.33
2022-11-22T03:48:25.823Z,1.43
2022-11-22T03:50:53.305Z,1.53
2022-11-22T03:53:23.046Z,1.33
2022-11-22T03:55:50.478Z,1.47
2022-11-22T03:58:17.977Z,1.36
2022-11-22T04:00:45.427Z,1.44
2022-11-22T04:03:12.908Z,1.43
2022-11-22T04:05:40.342Z,1.50
2022-11-22T04:08:07.803Z,1.47
2022-11-22T04:10:36.615Z,1.48
2022-11-22T04:13:04.087Z,1.29
2022-11-22T04:15:30.582Z,1.37
2022-11-22T04:17:58.055Z,1.28
2022-11-22T04:20:44.670Z,1.45
2022-11-22T04:23:13.691Z,1.30
2022-11-22T04:25:43.546Z,1.58
2022-11-22T04:28:11.877Z,1.48
2022-11-22T04:30:57.132Z,1.53
2022-11-22T04:33:25.004Z,1.61
2022-11-22T04:35:52.912Z,1.47
2022-11-22T04:38:20.844Z,1.52
2022-11-22T04:40:49.651Z,1.48
2022-11-22T04:43:38.885Z,1.47
2022-11-22T04:46:06.497Z,1.58
2022-11-22T04:48:34.301Z,1.44
2022-11-22T04:51:19.554Z,1.43
2022-11-22T04:53:46.999Z,1.71
2022-11-22T04:56:15.807Z,1.73
2022-11-22T04:58:43.253Z,1.57
2022-11-22T05:01:10.926Z,1.51
2022-11-22T05:03:38.526Z,1.42
2022-11-22T05:06:06.793Z,1.66
2022-11-22T05:08:34.260Z,1.71
2022-11-22T05:11:01.710Z,1.61
2022-11-22T05:13:33.963Z,1.63
2022-11-22T05:16:02.978Z,1.65
2022-11-22T05:18:30.818Z,1.74
2022-11-22T05:20:59.961Z,1.67
2022-11-22T05:23:44.963Z,1.64
2022-11-22T05:26:12.543Z,1.75
2022-11-22T05:28:41.346Z,1.79
2022-11-22T05:31:09.971Z,1.70
2022-11-22T05:33:38.449Z,1.80
2022-11-22T05:36:07.053Z,1.85
2022-11-22T05:38:35.359Z,1.66
2022-11-22T05:41:03.337Z,1.74
2022-11-22T05:43:31.160Z,1.71
2022-11-22T05:46:07.330Z,1.77
2022-11-22T05:48:34.809Z,1.72
2022-11-22T05:51:05.151Z,1.81
2022-11-22T05:53:32.615Z,1.84
2022-11-22T05:56:04.930Z,1.73
2022-11-22T05:58:32.520Z,1.76
2022-11-22T06:01:06.096Z,1.81
2022-11-22T06:03:35.653Z,1.71
2022-11-22T06:06:03.224Z,1.77
2022-11-22T06:08:30.972Z,1.82
2022-11-22T06:11:05.136Z,1.74
2022-11-22T06:13:34.783Z,1.84
2022-11-22T06:16:02.270Z,1.74
2022-11-22T06:18:31.223Z,1.83
2022-11-22T06:20:59.704Z,1.79
2022-11-22T06:23:27.211Z,1.73
2022-11-22T06:25:59.204Z,1.77
2022-11-22T06:28:26.930Z,1.84
2022-11-22T06:30:54.386Z,1.70
2022-11-22T06:33:21.882Z,1.77
2022-11-22T06:35:50.682Z,1.81
2022-11-22T06:38:18.114Z,1.98
2022-11-22T06:40:45.543Z,1.91
2022-11-22T06:43:13.002Z,1.84
2022-11-22T06:45:40.444Z,1.77
2022-11-22T06:48:08.143Z,1.91
2022-11-22T06:50:35.586Z,1.88
2022-11-22T06:53:04.376Z,1.80
2022-11-22T06:55:49.801Z,1.90
2022-11-22T06:58:18.086Z,1.94
2022-11-22T07:00:45.608Z,1.90
2022-11-22T07:03:13.134Z,1.92
2022-11-22T07:05:40.599Z,1.95
2022-11-22T07:08:13.719Z,1.96
2022-11-22T07:10:41.663Z,2.09
2022-11-22T07:13:09.726Z,2.03
2022-11-22T07:15:37.169Z,2.04
2022-11-22T07:18:04.720Z,2.06
2022-11-22T07:20:32.418Z,2.09
2022-11-22T07:22:59.843Z,2.17
2022-11-22T07:25:28.613Z,2.15
2022-11-22T07:27:56.065Z,2.19
2022-11-22T07:30:23.512Z,2.16
2022-11-22T07:32:50.955Z,2.08
2022-11-22T07:35:18.441Z,2.16
2022-11-22T07:37:45.892Z,1.99
2022-11-22T07:40:13.625Z,2.01
2022-11-22T07:42:42.419Z,2.09
2022-11-22T07:45:10.741Z,2.09
2022-11-22T07:47:38.197Z,2.03
2022-11-22T07:50:06.658Z,2.10
2022-11-22T07:52:34.158Z,2.06
2022-11-22T07:55:03.007Z,2.14
2022-11-22T07:57:30.446Z,2.16
2022-11-22T07:59:59.234Z,2.17
2022-11-22T08:02:26.811Z,2.06
2022-11-22T08:04:54.568Z,2.19
2022-11-22T08:07:22.067Z,2.04
2022-11-22T08:09:49.547Z,2.10
2022-11-22T08:12:16.976Z,2.00
2022-11-22T08:14:44.441Z,2.06
2022-11-22T08:17:13.242Z,2.07
2022-11-22T08:19:40.687Z,2.12
2022-11-22T08:22:08.171Z,2.07
2022-11-22T08:24:35.637Z,2.14
2022-11-22T08:27:03.081Z,2.06
2022-11-22T08:29:30.822Z,2.01
2022-11-22T08:31:58.475Z,2.11
2022-11-22T08:34:27.337Z,2.06
2022-11-22T08:36:54.760Z,2.13
2022-11-22T08:39:22.954Z,2.14
2022-11-22T08:41:50.387Z,2.16
2022-11-22T08:44:17.867Z,2.21
2022-11-22T08:46:45.377Z,2.06
2022-11-22T08:49:12.941Z,2.12
2022-11-22T08:51:44.752Z,2.14
2022-11-22T08:54:12.315Z,2.14
2022-11-22T08:56:39.756Z,2.22
2022-11-22T08:59:07.231Z,2.19
2022-11-22T09:01:34.999Z,2.18
2022-11-22T09:04:02.491Z,2.16
2022-11-22T09:12:06.969Z,2.24
2022-11-22T09:14:34.424Z,2.26
2022-11-22T09:17:01.874Z,2.30
2022-11-22T09:19:29.817Z,2.21
2022-11-22T09:21:57.599Z,2.30
2022-11-22T09:24:26.412Z,2.33
2022-11-22T09:26:53.864Z,2.24
2022-11-22T09:29:21.339Z,2.31
2022-11-22T09:31:49.255Z,2.30
2022-11-22T09:34:16.708Z,2.29
2022-11-22T09:36:44.140Z,2.33
2022-11-22T09:39:11.706Z,2.34
2022-11-22T09:41:59.354Z,2.45
2022-11-22T09:44:33.438Z,2.27
2022-11-22T09:47:07.296Z,2.21
2022-11-22T09:49:40.802Z,2.18
2022-11-22T09:52:11.020Z,2.28
2022-11-22T09:54:42.316Z,2.22
2022-11-22T09:57:15.530Z,2.29
2022-11-22T09:59:46.387Z,2.17
2022-11-22T10:02:19.120Z,2.29
2022-11-22T10:04:53.015Z,2.23
2022-11-22T10:07:23.604Z,2.23
2022-11-22T10:09:55.413Z,2.29
2022-11-22T10:12:29.128Z,2.20
2022-11-22T10:15:04.474Z,2.27
2022-11-22T10:17:42.195Z,2.39
2022-11-22T10:20:15.355Z,2.28
2022-11-22T10:22:43.079Z,2.43
2022-11-22T10:25:17.138Z,2.28
2022-11-22T10:27:46.580Z,2.43
2022-11-22T10:30:16.644Z,2.46
2022-11-22T10:32:50.814Z,2.34
2022-11-22T10:35:37.935Z,2.44
2022-11-22T10:38:13.071Z,2.45
2022-11-22T10:40:44.022Z,2.44
2022-11-22T10:43:25.603Z,2.44
2022-11-22T10:45:57.295Z,2.51
2022-11-22T10:48:28.353Z,2.43
2022-11-22T10:51:01.502Z,2.50
2022-11-22T10:53:38.180Z,2.54
2022-11-22T10:56:10.571Z,2.56
2022-11-22T10:58:52.283Z,2.57
2022-11-22T11:01:25.542Z,2.63
2022-11-22T11:03:57.539Z,2.56
2022-11-22T11:06:43.536Z,2.62
2022-11-22T11:12:13.166Z,2.64
2022-11-22T11:14:45.182Z,2.54
2022-11-22T11:17:16.084Z,2.70
2022-11-22T11:19:45.491Z,2.70
2022-11-22T11:22:26.112Z,2.69
2022-11-22T11:25:27.657Z,2.74
2022-11-22T11:27:55.302Z,2.76
2022-11-22T11:30:24.071Z,2.77
2022-11-22T11:32:53.629Z,2.77
2022-11-22T11:35:22.273Z,2.84
2022-11-22T11:37:49.754Z,2.84
2022-11-22T11:40:28.247Z,2.79
2022-11-22T11:43:17.523Z,2.82
2022-11-22T11:45:46.324Z,2.85
2022-11-22T11:48:27.310Z,2.91
2022-11-22T11:51:07.066Z,3.03
2022-11-22T11:53:34.859Z,2.85
2022-11-22T11:56:41.156Z,2.96
2022-11-22T11:59:13.543Z,2.96
2022-11-22T12:01:49.141Z,2.93
2022-11-22T12:04:21.366Z,3.05
2022-11-22T12:07:02.920Z,3.07
2022-11-22T12:09:36.051Z,3.06
2022-11-22T12:12:10.082Z,3.09
2022-11-22T12:15:03.762Z,3.01
2022-11-22T12:17:31.514Z,2.98
2022-11-22T12:20:04.757Z,3.03
2022-11-22T12:22:54.216Z,3.14
2022-11-22T12:25:32.609Z,3.08
2022-11-22T12:28:06.055Z,3.06
2022-11-22T12:30:33.951Z,3.13
2022-11-22T12:33:04.895Z,3.15
2022-11-22T12:35:34.891Z,3.05
2022-11-22T12:38:07.353Z,3.23
2022-11-22T12:40:39.999Z,3.18
2022-11-22T12:43:12.163Z,3.16
2022-11-22T12:45:41.729Z,3.19
2022-11-22T12:48:17.353Z,3.24
2022-11-22T12:50:47.573Z,3.27
2022-11-22T12:53:16.899Z,3.28
2022-11-22T12:55:48.079Z,3.26
2022-11-22T12:58:22.839Z,3.23
2022-11-22T13:01:00.949Z,3.32
2022-11-22T13:03:32.931Z,3.29
2022-11-22T13:06:01.395Z,3.18
2022-11-22T13:08:32.419Z,3.14
2022-11-22T13:11:05.865Z,3.07
2022-11-22T13:13:35.246Z,3.06
2022-11-22T13:16:04.449Z,3.13
2022-11-22T13:18:34.911Z,3.22
2022-11-22T13:21:09.470Z,3.23
2022-11-22T13:23:53.054Z,3.14
2022-11-22T13:26:24.386Z,3.10
2022-11-22T13:28:52.478Z,3.11
2022-11-22T13:31:20.611Z,3.11
2022-11-22T13:33:57.430Z,3.19
2022-11-22T13:36:41.123Z,3.12
2022-11-22T13:39:14.686Z,3.16
2022-11-22T13:41:47.548Z,3.07
2022-11-22T13:44:26.711Z,3.08
2022-11-22T13:46:58.762Z,3.15
2022-11-22T13:49:48.002Z,3.08
2022-11-22T13:52:35.833Z,3.11
2022-11-22T13:55:36.026Z,3.12
2022-11-22T13:58:50.259Z,3.10
2022-11-22T14:02:06.712Z,3.22
2022-11-22T14:04:43.596Z,3.17
2022-11-22T14:07:24.705Z,3.24
2022-11-22T14:09:56.863Z,3.09
2022-11-22T14:12:53.354Z,3.09
2022-11-22T14:15:42.586Z,3.12
2022-11-22T14:18:21.357Z,3.20
2022-11-22T14:21:02.422Z,3.19
2022-11-22T14:23:37.364Z,3.15
2022-11-22T14:26:21.343Z,3.18
2022-11-22T14:29:03.401Z,3.22
2022-11-22T14:31:32.496Z,3.29
2022-11-22T14:34:20.290Z,3.31
2022-11-22T14:37:27.593Z,3.30
2022-11-22T14:40:30.884Z,3.32
2022-11-22T14:43:00.306Z,3.35
2022-11-22T14:45:36.999Z,3.20
2022-11-22T14:48:06.728Z,3.24
2022-11-22T14:50:40.284Z,3.24
2022-11-22T14:53:20.729Z,3.20
2022-11-22T14:55:48.950Z,3.20
2022-11-22T14:58:22.796Z,3.23
2022-11-22T15:01:05.232Z,3.20
2022-11-22T15:09:10.194Z,3.23
2022-11-22T15:09:20.085Z,3.14
2022-11-22T15:10:01.856Z,3.19
2022-11-22T15:12:46.129Z,3.28
2022-11-22T15:58:47.915Z,3.43
2022-11-22T16:01:20.287Z,3.35
2022-11-22T16:03:50.694Z,3.45
2022-11-22T16:06:23.170Z,3.37
2022-11-22T16:08:52.323Z,3.22
2022-11-22T16:11:21.030Z,3.26
2022-11-22T16:13:48.729Z,3.18
2022-11-22T16:16:22.289Z,3.38
2022-11-22T16:18:50.702Z,3.40
2022-11-22T16:21:25.017Z,3.39
2022-11-22T16:24:12.415Z,3.40
2022-11-22T16:26:40.286Z,3.34
2022-11-22T16:29:28.796Z,3.40
2022-11-22T16:32:06.478Z,3.45
2022-11-22T16:34:33.983Z,3.40
2022-11-22T16:37:02.987Z,3.38
2022-11-22T16:39:31.316Z,3.36
2022-11-22T16:41:59.191Z,3.47
2022-11-22T16:44:26.628Z,3.46
2022-11-22T16:46:54.071Z,3.39
2022-11-22T16:49:23.525Z,3.38
2022-11-22T16:51:51.732Z,3.36
2022-11-22T16:54:20.691Z,3.20
2022-11-22T16:56:48.231Z,3.26
2022-11-22T16:59:15.750Z,3.28
2022-11-22T17:01:43.990Z,3.26
2022-11-22T17:04:20.301Z,3.28
2022-11-22T17:06:49.109Z,3.23
2022-11-22T17:09:16.565Z,3.18
2022-11-22T17:11:44.908Z,3.10
2022-11-22T17:14:14.689Z,3.17
2022-11-22T17:16:42.415Z,3.19
2022-11-22T17:19:30.304Z,3.07
2022-11-22T17:21:58.695Z,3.00
2022-11-22T17:24:26.147Z,3.13
2022-11-22T17:26:53.566Z,3.02
2022-11-22T17:32:11.632Z,3.04
2022-11-22T17:34:39.168Z,2.96
2022-11-22T17:37:11.486Z,2.95
2022-11-22T17:39:39.170Z,2.98
2022-11-22T17:42:06.698Z,2.92
2022-11-22T17:44:34.211Z,2.93
2022-11-22T17:47:01.796Z,2.82
2022-11-22T17:49:29.585Z,2.93
2022-11-22T17:51:57.322Z,3.04
2022-11-22T17:54:26.228Z,2.98
2022-11-22T17:56:53.650Z,2.88
2022-11-22T17:59:21.113Z,3.02
2022-11-22T18:01:48.530Z,3.20
2022-11-22T18:04:17.331Z,2.90
2022-11-22T18:06:44.781Z,2.97
2022-11-22T18:09:12.265Z,3.04
2022-11-22T18:11:41.070Z,3.10
2022-11-22T18:14:08.959Z,2.97
2022-11-22T18:16:36.470Z,3.00
2022-11-22T18:19:03.926Z,3.11
2022-11-22T18:21:33.199Z,3.08
2022-11-22T18:24:01.309Z,3.10
2022-11-22T18:26:44.437Z,3.16
2022-11-22T18:32:02.103Z,3.18
2022-11-22T18:34:30.122Z,3.22
2022-11-22T18:39:45.386Z,3.14
2022-11-22T18:42:14.537Z,3.09
2022-11-22T18:44:43.463Z,3.17
2022-11-22T18:47:10.908Z,3.08
2022-11-22T18:49:38.396Z,2.99
2022-11-22T18:52:06.265Z,3.15
2022-11-22T18:54:34.020Z,3.03
2022-11-22T18:57:01.678Z,3.18
2022-11-22T18:59:29.157Z,3.08
2022-11-22T19:01:57.946Z,2.96
2022-11-22T19:04:25.395Z,3.18
2022-11-22T19:06:52.854Z,3.13
2022-11-22T19:09:20.314Z,3.10
2022-11-22T19:11:47.738Z,3.03
2022-11-22T19:14:15.430Z,3.07
2022-11-22T19:16:42.874Z,2.97
2022-11-22T19:19:12.944Z,3.05
2022-11-22T19:21:40.454Z,2.95
2022-11-22T19:24:07.995Z,3.01
2022-11-22T19:26:35.574Z,3.01
2022-11-22T19:29:04.642Z,2.90
2022-11-22T19:31:33.530Z,2.91
2022-11-22T19:34:01.251Z,2.91
2022-11-22T19:36:33.803Z,2.90
2022-11-22T19:39:03.216Z,2.82
2022-11-22T19:41:31.546Z,2.97
2022-11-22T19:43:59.048Z,2.81
2022-11-22T19:46:26.771Z,2.95
2022-11-22T19:48:55.702Z,2.93
2022-11-22T19:51:23.886Z,2.90
2022-11-22T19:53:55.280Z,2.82
2022-11-22T19:56:22.754Z,2.91
2022-11-22T19:58:51.330Z,2.94
2022-11-22T20:01:19.545Z,2.88
2022-11-22T20:03:47.543Z,2.81
2022-11-22T20:06:15.197Z,2.97
2022-11-22T20:08:42.650Z,2.95
2022-11-22T20:11:13.131Z,2.89
2022-11-22T20:13:42.581Z,2.89
2022-11-22T20:16:11.878Z,2.91
2022-11-22T20:18:39.334Z,2.94
2022-11-22T20:21:09.054Z,2.90
2022-11-22T20:23:38.206Z,2.93
2022-11-22T20:26:09.019Z,2.95
2022-11-22T20:28:38.085Z,2.92
2022-11-22T20:31:07.179Z,2.94
2022-11-22T20:33:35.264Z,2.93
2022-11-22T20:36:04.094Z,2.96
2022-11-22T20:38:33.704Z,2.88
2022-11-22T20:41:01.422Z,3.00
2022-11-22T20:43:28.942Z,2.83
2022-11-22T20:46:03.043Z,2.88
2022-11-22T20:48:31.565Z,2.87
2022-11-22T20:50:59.358Z,2.73
2022-11-22T20:53:26.983Z,2.83
2022-11-22T20:55:54.645Z,2.85
2022-11-22T20:58:22.675Z,2.96
2022-11-22T21:00:50.169Z,2.82
2022-11-22T21:03:19.125Z,2.93
2022-11-22T21:05:46.914Z,2.92
2022-11-22T21:08:14.461Z,2.98
2022-11-22T21:10:41.919Z,2.98
2022-11-22T21:13:09.354Z,3.02
2022-11-22T21:15:37.279Z,2.94
2022-11-22T21:18:25.176Z,2.94
2022-11-22T21:20:54.272Z,2.89
2022-11-22T21:23:21.705Z,2.87
2022-11-22T21:25:50.340Z,2.88
2022-11-22T21:28:17.799Z,2.86
2022-11-22T21:30:45.254Z,2.92
2022-11-22T21:33:12.698Z,2.90
2022-11-22T21:35:42.739Z,2.94
2022-11-22T21:38:14.640Z,2.94
2022-11-22T21:40:50.170Z,3.00
2022-11-22T21:43:17.625Z,2.96
2022-11-22T21:45:45.047Z,2.98
2022-11-22T21:48:12.681Z,3.01
2022-11-22T21:50:40.431Z,2.89
2022-11-22T21:53:07.918Z,2.90
2022-11-22T21:55:36.686Z,2.98
2022-11-22T21:58:04.228Z,2.82
2022-11-22T22:00:31.662Z,2.76
2022-11-22T22:02:59.084Z,2.77
2022-11-22T22:05:27.276Z,2.87
2022-11-22T22:07:54.744Z,2.90
2022-11-22T22:10:22.287Z,2.98
2022-11-22T22:12:52.824Z,2.93
2022-11-22T22:15:20.298Z,3.09
2022-11-22T22:17:47.738Z,3.03
2022-11-22T22:20:15.318Z,3.14
2022-11-22T22:22:42.825Z,3.12
2022-11-22T22:25:10.338Z,3.14
2022-11-22T22:27:37.823Z,3.11
2022-11-22T22:30:08.727Z,3.07
2022-11-22T22:32:36.687Z,3.13
2022-11-22T22:35:05.449Z,3.16
2022-11-22T22:37:35.113Z,3.16
2022-11-22T22:40:02.607Z,3.18
2022-11-22T22:42:30.090Z,3.07
2022-11-22T22:44:57.547Z,3.05
2022-11-22T22:47:26.342Z,3.08
2022-11-22T22:49:53.771Z,3.04
2022-11-22T22:52:21.203Z,3.00
2022-11-22T22:54:48.659Z,3.12
2022-11-22T22:57:16.131Z,3.10
2022-11-22T22:59:43.561Z,3.07
2022-11-22T23:02:11.032Z,3.20
2022-11-22T23:04:40.488Z,3.22
2022-11-22T23:07:08.129Z,3.10
2022-11-22T23:09:35.637Z,3.05
2022-11-22T23:12:12.153Z,3.08
2022-11-22T23:14:40.848Z,3.16
2022-11-22T23:17:09.150Z,3.16
2022-11-22T23:19:36.621Z,3.16
2022-11-22T23:22:05.695Z,3.15
2022-11-22T23:24:33.807Z,3.07
2022-11-22T23:27:01.559Z,3.05
2022-11-22T23:29:29.269Z,3.03
2022-11-22T23:31:56.861Z,3.05
2022-11-22T23:34:24.319Z,3.06
2022-11-22T23:36:51.765Z,3.05
2022-11-22T23:39:20.575Z,3.22
2022-11-22T23:41:48.090Z,3.14
2022-11-22T23:44:15.559Z,3.14
2022-11-22T23:46:43.122Z,3.10
2022-11-22T23:49:11.648Z,3.20
2022-11-22T23:51:39.122Z,3.11
2022-11-22T23:54:07.226Z,3.09
2022-11-22T23:56:37.010Z,3.02
2022-11-22T23:59:05.840Z,3.06
